• Join FlightAware (Why Join?)
  • Login
  • US Flag 
09:57AM EST


 

Airport Tracker/Info


-or-


 

Live Flight TrackerFlight Track Log ✈ AWE1966 ✈ 01-May-2012 ✈ MDPC / PUJ - KCLT

Flight Track Log - Related Links

Times and Time Zones

All times are in EDT time to prevent confusion due to time zone crossing. See the AWE1966 flight status page for this flight to view local times or setup timezone preferences in your user account.

Time Position Orientation Groundspeed Altitude Reporting Facility
EDT Latitude Longitude Course Direction KTS MPH feet Rate Location/Type
02:56PM 19.1528 -69.0072 317° Northwest 463 533 21,400  Level Miami Center
02:57PM 19.2317 -69.0861 311° West 427 491 23,200 1,620 Climbing Miami Center
02:58PM 19.3069 -69.1783 315° West 411 473 24,700 1,260 Climbing Miami Center
02:59PM 19.3881 -69.2639 308° West 411 473 25,800 1,200 Climbing Miami Center
03:00PM 19.4614 -69.3650 317° Northwest 418 481 27,100 1,200 Climbing Miami Center
03:01PM 19.5489 -69.4528 315° West 423 487 28,200 900 Climbing Miami Center
03:02PM 19.6342 -69.5425 313° West 429 494 28,900 720 Climbing Miami Center
03:03PM 19.7200 -69.6392 313° West 434 499 29,700 960 Climbing Miami Center
03:04PM 19.8056 -69.7383 314° West 446 513 30,900 1,320 Climbing Miami Center
03:05PM 19.8908 -69.8308 314° West 451 519 32,400 1,560 Climbing Miami Center
03:06PM 19.9719 -69.9214 337° Northwest 451 519 34,100 1,440 Climbing Miami Center
03:07PM 20.0847 -69.9731 338° Northwest 431 496 35,300 900 Climbing Miami Center
03:08PM 20.1950 -70.0206 340° North 431 496 36,000 300 Climbing Miami Center
03:09PM 20.3053 -70.0636 341° North 426 490 36,000  Level Miami Center
03:10PM 20.4197 -70.1067 339° North 426 490 36,000  Level Miami Center
03:11PM 20.5319 -70.1519 339° North 420 483 36,000  Level Miami Center
03:12PM 20.6422 -70.1975 340° North 420 483 36,000  Level Miami Center
03:13PM 20.7547 -70.2408 340° North 420 483 36,000  Level Miami Center
03:14PM 20.8692 -70.2864 339° North 427 491 36,000  Level Miami Center
03:15PM 20.9794 -70.3319 339° North 427 491 36,000  Level Miami Center
03:16PM 21.0919 -70.3778 340° North 427 491 36,000  Level Miami Center
03:17PM 21.2019 -70.4214 339° North 422 486 36,000  Level Miami Center
03:18PM 21.3122 -70.4672 340° North 422 486 36,000  Level Miami Center
03:19PM 21.4225 -70.5111 339° North 422 486 36,000  Level Miami Center
03:20PM 21.5350 -70.5569 340° North 422 486 36,000  Level Miami Center
03:21PM 21.6453 -70.6008 340° North 422 486 36,000  Level Miami Center
03:22PM 21.7556 -70.6447 339° North 422 486 36,000  Level Miami Center
03:23PM 21.8658 -70.6911 339° North 422 486 36,000  Level Miami Center
03:24PM 21.9761 -70.7372 340° North 422 486 36,000  Level Miami Center
03:25PM 22.0906 -70.7811 339° North 422 486 36,000  Level Miami Center
03:26PM 22.2008 -70.8278 339° North 422 486 36,000  Level Miami Center
03:27PM 22.3153 -70.8761 340° North 427 491 36,000  Level Miami Center
03:28PM 22.4256 -70.9206 339° North 427 491 36,000  Level Miami Center
03:29PM 22.5400 -70.9669 339° North 427 491 36,000  Level Miami Center
03:30PM 22.6525 -71.0136 340° North 427 491 36,000  Level Miami Center
03:31PM 22.7628 -71.0581 339° North 432 497 36,000  Level Miami Center
03:32PM 22.8772 -71.1047 338° Northwest 432 497 36,000  Level Miami Center
03:33PM 22.9875 -71.1539 339° North 432 497 36,000  Level Miami Center
03:34PM 23.1000 -71.2008 341° North 432 497 36,000  Level Miami Center
03:35PM 23.2122 -71.2433 337° Northwest 432 497 36,000  Level Miami Center
03:36PM 23.3228 -71.2950 342° North 432 497 36,000  Level Miami Center
03:37PM 23.4347 -71.3353 338° Northwest 432 497 36,000  Level Miami Center
03:38PM 23.5472 -71.3847 339° North 432 497 36,000  Level Miami Center
03:39PM 23.6575 -71.4300 339° North 427 491 36,000  Level Miami Center
03:40PM 23.7678 -71.4772 338° Northwest 427 491 36,000  Level Miami Center
03:41PM 23.8781 -71.5250 340° North 422 486 36,000  Level Miami Center
03:42PM 23.9881 -71.5681 335° Northwest 417 480 36,000  Level Miami Center
03:43PM 24.0964 -71.6225 344° North 417 480 36,000  Level Miami Center
03:44PM 24.2083 -71.6586 337° Northwest 422 486 36,000  Level Miami Center
03:45PM 24.3186 -71.7089 338° Northwest 417 480 36,000  Level Miami Center
03:46PM 24.4289 -71.7567 340° North 417 480 36,000  Level Miami Center
03:47PM 24.5411 -71.8022 338° Northwest 422 486 36,000  Level Miami Center
03:48PM 24.6536 -71.8525 340° North 422 486 36,000  Level Miami Center
03:49PM 24.7658 -71.8983 347° North 422 486 36,000  Level Miami Center
03:50PM 24.8858 -71.9278 346° North 422 486 36,000  Level Miami Center
03:51PM 25.0058 -71.9619 260° West 430 495 36,000  Level Miami Center
03:52PM 25.0000 -72.0000 350° North 422 486 36,000  Level New York Oceanic (ODAPS)
03:52PM 25.1081 -72.0219 329° Northwest 430 495 36,000  Level Miami Center
03:53PM 25.2106 -72.0892 330° Northwest 424 488 36,000  Level Miami Center
04:23PM 28.2500 -74.1167 322° Northwest 434 499 36,000  Level New York Oceanic (ODAPS)
04:49PM 30.7653 -76.4097 320° Northwest 454 522 36,000  Level Jacksonville Center
04:50PM 30.8597 -76.5025 318° Northwest 448 516 36,000  Level Jacksonville Center
04:51PM 30.9500 -76.5981 320° Northwest 443 510 36,100  Climbing Jacksonville Center
04:52PM 31.0464 -76.6933 319° Northwest 443 510 36,000 -60 Descending Jacksonville Center
04:53PM 31.1386 -76.7867 321° Northwest 438 504 36,000  Level Jacksonville Center
04:54PM 31.2306 -76.8753 320° Northwest 433 498 36,000  Level Jacksonville Center
04:55PM 31.3247 -76.9689 318° Northwest 433 498 36,000  Level Jacksonville Center
04:56PM 31.4167 -77.0653 322° Northwest 433 498 36,000  Level Jacksonville Center
04:57PM 31.5125 -77.1519 322° Northwest 433 498 36,000  Level Jacksonville Center
04:58PM 31.6061 -77.2389 322° Northwest 433 498 36,000  Level Jacksonville Center
04:59PM 31.7019 -77.3258 319° Northwest 433 498 36,000  Level Jacksonville Center
05:00PM 31.7936 -77.4203 325° Northwest 433 498 36,000  Level Jacksonville Center
05:01PM 31.8889 -77.4978 319° Northwest 427 491 36,000  Level Jacksonville Center
05:02PM 31.9803 -77.5906 321° Northwest 427 491 36,000  Level Jacksonville Center
05:03PM 32.0761 -77.6806 321° Northwest 427 491 36,000  Level Jacksonville Center
05:04PM 32.1672 -77.7686 316° Northwest 427 491 36,000  Level Jacksonville Center
05:05PM 32.2503 -77.8647 294° West 425 489 36,000  Level Jacksonville Center
05:06PM 32.2994 -77.9969 290° West 414 476 36,000  Level Jacksonville Center
05:07PM 32.3400 -78.1300 290° West 422 486 36,000  Level Jacksonville Center
05:08PM 32.3803 -78.2633 289° West 427 491 36,000  Level Jacksonville Center
05:09PM 32.4186 -78.3967 292° West 434 499 36,000  Level Jacksonville Center
05:10PM 32.4672 -78.5369 290° West 439 505 36,000 -120 Level Jacksonville Center
05:11PM 32.5075 -78.6706 288° West 432 497 35,800 -600 Descending Jacksonville Center
05:12PM 32.5453 -78.8067 289° West 432 497 34,900 -960 Descending Jacksonville Center
05:13PM 32.5850 -78.9406 289° West 432 497 33,900 -1,020 Descending Jacksonville Center
05:14PM 32.6222 -79.0697 288° West 439 505 32,900 -960 Descending Jacksonville Center
05:15PM 32.6575 -79.1989 289° West 434 499 32,000 -300 Descending Jacksonville Center
05:17PM 32.7314 -79.4553 289° West 417 480 32,000  Level Jacksonville Center
05:18PM 32.7639 -79.5700 289° West 417 480 32,000  Level Jacksonville Center
05:19PM 32.8006 -79.6972 328° Northwest 417 480 32,000  Level Jacksonville Center
05:20PM 32.9067 -79.7750 353° North 380 437 32,000  Level Jacksonville Center
05:21PM 33.0178 -79.7911 357° North 366 421 32,000  Level Jacksonville Center
05:22PM 33.1328 -79.7994 354° North 385 443 32,000  Level Jacksonville Center
05:23PM 33.2436 -79.8131 356° North 396 456 32,000 -360 Level Jacksonville Center
05:24PM 33.3589 -79.8239 356° North 406 467 31,300 -1,440 Descending Jacksonville Center
05:25PM 33.4717 -79.8325 354° North 406 467 29,200 -2,640 Descending Jacksonville Center
05:26PM 33.5867 -79.8458 355° North 406 467 26,100 -2,700 Descending Jacksonville Center
05:27PM 33.7061 -79.8592 355° North 406 467 23,900 -1,800 Descending Jacksonville Center
05:28PM 33.8147 -79.8706 336° Northwest 406 467 22,500 -1,380 Descending Jacksonville Center
05:29PM 33.9164 -79.9244 338° Northwest 392 451 21,200 -1,320 Descending Jacksonville Center
05:30PM 34.0156 -79.9739 337° Northwest 387 445 19,900 -1,320 Descending Jacksonville Center
05:31PM 34.1147 -80.0256 336° Northwest 387 445 18,600 -1,260 Descending Jacksonville Center
05:32PM 34.2119 -80.0778 336° Northwest 381 438 17,400 -1,200 Descending Jacksonville Center
05:33PM 34.3028 -80.1275 336° Northwest 375 432 16,300 -1,200 Descending Jacksonville Center
05:34PM 34.3956 -80.1775 337° Northwest 368 423 15,000 -1,260 Descending Jacksonville Center
05:35PM 34.4864 -80.2250 336° Northwest 361 415 13,800 -1,200 Descending Jacksonville Center
05:37PM 34.6900 -80.3353 315° West 306 352 11,000 -840 Descending Atlanta Center
05:38PM 34.7400 -80.3964 317° Northwest 304 350 11,000  Level Atlanta Center
05:39PM 34.7981 -80.4622 313° West 305 351 11,000  Level Atlanta Center
05:40PM 34.8567 -80.5381 316° Northwest 301 346 11,000  Level Atlanta Center
05:41PM 34.9192 -80.6114 314° West 298 343 11,000 -180 Level Atlanta Center
05:42PM 34.9797 -80.6875 314° West 277 319 10,600 -840 Descending Atlanta Center
05:43PM 35.0317 -80.7539 315° West 272 313 9,200 -1,140 Descending Atlanta Center
05:44PM 35.0575 -80.7858 345° North 265 305 8,900 -180 Descending Atlanta Center
05:45PM 35.1186 -80.8064 21° North 252 290 9,000 -600 Climbing Atlanta Center
05:46PM 35.2133 -80.7619 37° Northeast 220 253 7,400 -1,440 Descending Atlanta Center
05:47PM 35.2419 -80.7353 43° Northeast 226 260 6,000 -1,680 Descending Atlanta Center
05:48PM 35.2944 -80.6747 329° Northwest 219 252 4,400 -960 Descending Atlanta Center
05:49PM 35.3372 -80.7061 290° West 198 228 4,000 -300 Descending Atlanta Center
05:50PM 35.3533 -80.7614 222° Southwest 180 207 3,900 -300 Descending Atlanta Center
05:51PM 35.3147 -80.8039 222° Southwest 182 209 3,400 -540 Descending Atlanta Center